Terminal Aerodrome Forecast
Issued by NWS Lubbock, TX

Home | Current Version | Previous Version | Text Only | Print | Product List | Glossary On
Versions: 1 2 3 4 5 6 7 8 9 10 11 12 13 14 15 16 17 18 19 20
000
FTUS44 KLUB 070540
TAFLBB
TAF
KLBB 070540Z 0706/0806 36014KT 5SM BR SCT015 BKN030
      TEMPO 0706/0708 2SM +TSRA SCT012 BKN020CB
     FM070800 01014KT 5SM BR OVC012
      TEMPO 0708/0711 4SM -TSRA BR OVC012CB
     FM071500 03010KT 5SM BR SCT007 OVC010 PROB30 0715/0718 4SM
      -TSRA BR OVC015CB=

USA.gov is the U.S. government's official web portal to all federal, state and local government web resources and services.